createdAt,value
2019-04-14T00:07:25.488Z,96881.00
2019-04-14T00:09:52.290Z,96878.66
2019-04-14T00:12:18.770Z,96878.39
2019-04-14T00:14:46.926Z,96882.30
2019-04-14T00:17:13.755Z,96876.30
2019-04-14T00:19:41.504Z,96881.30
2019-04-14T00:22:07.493Z,96885.44
2019-04-14T00:24:33.533Z,96879.17
2019-04-14T00:27:02.047Z,96876.34
2019-04-14T00:29:28.914Z,96882.56
2019-04-14T00:31:55.490Z,96885.17
2019-04-14T00:34:42.400Z,96878.91
2019-04-14T00:42:53.779Z,96860.92
2019-04-14T00:45:46.434Z,96863.02
2019-04-14T00:50:55.912Z,96861.47
2019-04-14T00:53:22.883Z,96864.60
2019-04-14T00:55:51.111Z,96866.95
2019-04-14T00:58:18.984Z,96869.30
2019-04-14T01:00:45.763Z,96860.92
2019-04-14T01:03:11.607Z,96859.13
2019-04-14T01:05:37.534Z,96857.80
2019-04-14T01:08:03.377Z,96857.80
2019-04-14T01:10:30.043Z,96854.41
2019-04-14T01:12:58.083Z,96858.84
2019-04-14T01:15:24.758Z,96854.89
2019-04-14T01:17:50.727Z,96855.94
2019-04-14T01:20:16.745Z,96859.33
2019-04-14T01:22:44.593Z,96855.94
2019-04-14T01:25:12.850Z,96850.72
2019-04-14T01:27:40.660Z,96858.55
2019-04-14T01:30:50.109Z,96858.02
2019-04-14T01:33:16.953Z,96851.23
2019-04-14T01:35:44.693Z,96856.72
2019-04-14T01:38:10.543Z,96861.93
2019-04-14T01:40:36.386Z,96857.23
2019-04-14T01:43:02.214Z,96859.28
2019-04-14T01:45:28.057Z,96864.50
2019-04-14T01:47:53.910Z,96865.27
2019-04-14T01:55:50.586Z,96866.06
2019-04-14T01:58:36.296Z,96871.27
2019-04-14T02:03:40.901Z,96865.23
2019-04-14T02:06:07.692Z,96861.59
2019-04-14T02:08:33.513Z,96857.94
2019-04-14T02:10:59.353Z,96856.94
2019-04-14T02:13:25.180Z,96857.14
2019-04-14T02:15:51.062Z,96860.80
2019-04-14T02:18:16.900Z,96857.66
2019-04-14T02:20:42.757Z,96859.96
2019-04-14T02:23:08.605Z,96865.69
2019-04-14T02:25:34.454Z,96868.83
2019-04-14T02:28:00.276Z,96872.19
2019-04-14T02:30:33.992Z,96873.77
2019-04-14T02:33:26.621Z,96871.69
2019-04-14T02:38:31.060Z,96866.42
2019-04-14T02:40:45.916Z,96865.69
2019-04-14T02:45:57.865Z,96872.45
2019-04-14T02:48:36.097Z,96863.61
2019-04-14T02:50:56.129Z,96864.38
2019-04-14T02:55:57.785Z,96872.38
2019-04-14T02:58:23.872Z,96867.13
2019-04-14T03:00:51.147Z,96864.78
2019-04-14T03:03:16.881Z,96863.98
2019-04-14T03:05:44.746Z,96860.59
2019-04-14T03:08:36.059Z,96864.77
2019-04-14T03:11:17.426Z,96870.22
2019-04-14T03:19:43.991Z,96870.36
2019-04-14T03:22:33.163Z,96870.67
2019-04-14T03:25:02.744Z,96872.19
2019-04-14T03:34:06.211Z,96877.09
2019-04-14T03:41:10.783Z,96863.57
2019-04-14T03:43:30.599Z,96868.71
2019-04-14T03:46:03.794Z,96873.40
2019-04-14T03:48:44.866Z,96869.01
2019-04-14T03:50:53.758Z,96874.91
2019-04-14T03:53:22.982Z,96876.98
2019-04-14T03:56:07.058Z,96871.31
2019-04-14T03:58:29.748Z,96873.89
2019-04-14T04:00:55.602Z,96869.72
2019-04-14T04:03:21.827Z,96874.41
2019-04-14T04:05:49.951Z,96879.62
2019-04-14T04:08:18.032Z,96877.50
2019-04-14T04:11:04.664Z,96879.87
2019-04-14T04:13:30.529Z,96881.83
2019-04-14T04:21:37.915Z,96885.48
2019-04-14T04:24:23.768Z,96885.79
2019-04-14T04:27:09.537Z,96888.30
2019-04-14T04:29:55.257Z,96897.27
2019-04-14T04:32:41.098Z,96891.60
2019-04-14T04:40:31.332Z,96902.37
2019-04-14T04:42:57.319Z,96893.73
2019-04-14T04:45:23.518Z,96889.84
2019-04-14T04:47:49.549Z,96899.27
2019-04-14T04:50:15.418Z,96901.25
2019-04-14T04:52:41.262Z,96903.89
2019-04-14T04:55:07.267Z,96905.00
2019-04-14T04:57:33.145Z,96905.23
2019-04-14T04:59:59.007Z,96902.37
2019-04-14T05:02:24.843Z,96910.33
2019-04-14T05:04:50.702Z,96915.15
2019-04-14T05:07:16.749Z,96919.48
2019-04-14T05:09:47.324Z,96925.84
2019-04-14T05:12:17.848Z,96922.07
2019-04-14T05:15:01.024Z,96918.72
2019-04-14T05:17:32.028Z,96919.88
2019-04-14T05:19:58.407Z,96919.86
2019-04-14T05:22:24.741Z,96921.00
2019-04-14T05:24:50.828Z,96924.95
2019-04-14T05:27:16.779Z,96921.13
2019-04-14T05:29:43.036Z,96920.52
2019-04-14T05:32:08.961Z,96927.36
2019-04-14T05:34:34.807Z,96926.30
2019-04-14T05:37:00.741Z,96929.31
2019-04-14T05:39:26.584Z,96932.29
2019-04-14T05:42:03.836Z,96932.34
2019-04-14T05:44:20.782Z,96930.27
2019-04-14T05:46:46.998Z,96933.38
2019-04-14T05:49:24.535Z,96930.42
2019-04-14T05:51:41.564Z,96938.94
2019-04-14T05:54:07.809Z,96937.69
2019-04-14T05:56:36.105Z,96944.26
2019-04-14T05:59:02.262Z,96939.00
2019-04-14T06:01:29.214Z,96934.30
2019-04-14T06:03:56.026Z,96948.59
2019-04-14T06:06:22.004Z,96947.57
2019-04-14T06:08:47.884Z,96948.96
2019-04-14T06:11:13.752Z,96951.00
2019-04-14T06:13:39.616Z,96955.36
2019-04-14T06:16:05.555Z,96956.14
2019-04-14T06:18:31.503Z,96951.78
2019-04-14T06:20:57.413Z,96940.88
2019-04-14T06:23:23.299Z,96956.25
2019-04-14T06:25:49.155Z,96959.95
2019-04-14T06:28:14.997Z,96954.95
2019-04-14T06:31:00.735Z,96961.53
2019-04-14T06:36:33.945Z,96957.23
2019-04-14T06:39:19.701Z,96971.53
2019-04-14T06:41:45.524Z,96967.35
2019-04-14T06:44:11.366Z,96971.95
2019-04-14T06:46:37.238Z,96974.05
2019-04-14T06:49:03.267Z,96961.88
2019-04-14T06:51:29.150Z,96964.84
2019-04-14T06:53:54.991Z,96965.67
2019-04-14T06:56:20.838Z,96971.01
2019-04-14T06:58:46.665Z,96954.39
2019-04-14T07:01:12.547Z,96960.94
2019-04-14T07:03:38.414Z,96959.64
2019-04-14T07:06:04.258Z,96962.81
2019-04-14T07:08:30.097Z,96951.06
2019-04-14T07:10:55.969Z,96960.73
2019-04-14T07:13:21.864Z,96967.51
2019-04-14T07:15:47.867Z,96961.25
2019-04-14T07:18:13.755Z,96957.33
2019-04-14T07:20:39.587Z,96967.79
2019-04-14T07:23:05.450Z,96969.63
2019-04-14T07:25:31.291Z,96968.04
2019-04-14T07:27:57.136Z,96967.02
2019-04-14T07:30:42.854Z,96970.12
2019-04-14T07:33:28.700Z,96970.10
2019-04-14T07:36:14.521Z,96973.20
2019-04-14T07:39:00.263Z,96971.33
2019-04-14T07:41:45.969Z,96973.73
2019-04-14T07:44:31.701Z,96971.41
2019-04-14T07:50:14.078Z,96974.07
2019-04-14T07:55:39.799Z,96974.02
2019-04-14T07:58:25.514Z,96973.51
2019-04-14T08:01:11.256Z,96964.96
2019-04-14T08:03:56.977Z,96957.59
2019-04-14T08:06:22.860Z,96959.97
2019-04-14T08:08:48.712Z,96955.92
2019-04-14T08:11:14.576Z,96961.29
2019-04-14T08:13:40.505Z,96963.55
2019-04-14T08:16:06.334Z,96960.02
2019-04-14T08:18:32.225Z,96963.03
2019-04-14T08:20:58.078Z,96958.73
2019-04-14T08:23:23.915Z,96959.77
2019-04-14T08:25:49.766Z,96956.64
2019-04-14T08:28:15.666Z,96954.95
2019-04-14T08:30:41.512Z,96956.48
2019-04-14T08:33:07.417Z,96955.39
2019-04-14T08:35:33.373Z,96950.67
2019-04-14T08:37:59.204Z,96952.37
2019-04-14T08:40:25.068Z,96954.78
2019-04-14T08:43:10.799Z,96950.55
2019-04-14T08:48:33.882Z,96955.52
2019-04-14T08:54:13.953Z,96953.61
2019-04-14T09:00:06.941Z,96961.98
2019-04-14T09:05:40.064Z,96950.05
2019-04-14T09:08:25.785Z,96948.48
2019-04-14T09:11:11.527Z,96950.80
2019-04-14T09:13:37.374Z,96944.55
2019-04-14T09:16:03.249Z,96948.68
2019-04-14T09:18:49.087Z,96947.09
2019-04-14T09:21:14.971Z,96948.59
2019-04-14T09:23:40.795Z,96950.41
2019-04-14T09:26:06.676Z,96953.83
2019-04-14T09:28:32.539Z,96954.95
2019-04-14T09:30:58.407Z,96943.26
2019-04-14T09:36:18.341Z,96945.82
2019-04-14T09:38:44.190Z,96952.02
2019-04-14T09:41:29.881Z,96950.72
2019-04-14T09:43:55.737Z,96955.73
2019-04-14T09:46:21.592Z,96958.30
2019-04-14T09:48:47.482Z,96947.33
2019-04-14T09:51:13.343Z,96946.65
2019-04-14T09:53:39.201Z,96952.17
2019-04-14T09:56:05.017Z,96956.11
2019-04-14T09:58:30.892Z,96954.02
2019-04-14T10:00:56.725Z,96955.77
2019-04-14T10:03:22.547Z,96955.44
2019-04-14T10:05:48.393Z,96950.67
2019-04-14T10:08:14.340Z,96955.79
2019-04-14T10:10:40.181Z,96964.76
2019-04-14T10:13:06.008Z,96965.78
2019-04-14T10:15:31.858Z,96961.95
2019-04-14T10:17:57.990Z,96959.96
2019-04-14T10:20:23.876Z,96960.39
2019-04-14T10:22:49.696Z,96966.23
2019-04-14T10:25:57.183Z,96963.17
2019-04-14T10:28:23.019Z,96966.63
2019-04-14T10:30:48.861Z,96968.23
2019-04-14T10:33:14.695Z,96965.91
2019-04-14T10:35:40.549Z,96959.18
2019-04-14T10:38:06.386Z,96960.43
2019-04-14T10:40:32.239Z,96955.13
2019-04-14T10:42:58.107Z,96960.09
2019-04-14T10:45:23.960Z,96955.61
2019-04-14T10:47:49.817Z,96959.52
2019-04-14T10:50:15.666Z,96960.22
2019-04-14T10:52:41.515Z,96953.77
2019-04-14T10:55:48.996Z,96950.94
2019-04-14T10:58:34.728Z,96949.52
2019-04-14T11:01:00.572Z,96945.26
2019-04-14T11:03:26.519Z,96944.36
2019-04-14T11:06:12.230Z,96946.71
2019-04-14T11:08:38.082Z,96938.75
2019-04-14T11:11:03.916Z,96939.98
2019-04-14T11:13:29.857Z,96942.91
2019-04-14T11:15:55.692Z,96943.00
2019-04-14T11:18:21.551Z,96941.14
2019-04-14T11:20:47.422Z,96931.78
2019-04-14T11:23:13.254Z,96935.61
2019-04-14T11:25:39.117Z,96940.45
2019-04-14T11:28:05.040Z,96934.38
2019-04-14T11:30:30.922Z,96941.20
2019-04-14T11:33:16.618Z,96938.94
2019-04-14T11:36:02.355Z,96942.98
2019-04-14T11:43:49.177Z,96948.66
2019-04-14T11:46:34.986Z,96949.11
2019-04-14T11:51:55.188Z,96952.45
2019-04-14T11:54:35.784Z,96956.73
2019-04-14T11:57:01.636Z,96956.73
2019-04-14T11:59:47.364Z,96962.89
2019-04-14T12:02:53.125Z,96972.50
2019-04-14T12:05:58.697Z,96971.59
2019-04-14T12:09:04.298Z,96972.08
2019-04-14T12:11:30.236Z,96972.08
2019-04-14T12:13:56.101Z,96982.31
2019-04-14T12:16:22.039Z,96976.81
2019-04-14T12:18:47.897Z,96985.59
2019-04-14T12:21:13.767Z,96991.25
2019-04-14T12:23:39.592Z,96994.09
2019-04-14T12:26:06.101Z,96998.34
2019-04-14T12:28:53.725Z,97000.02
2019-04-14T12:31:39.659Z,96997.94
2019-04-14T12:34:25.447Z,97000.02
2019-04-14T12:36:51.325Z,97000.02
2019-04-14T12:39:58.802Z,96995.53
2019-04-14T12:55:36.788Z,97000.02
2019-04-14T13:01:09.949Z,96996.23
2019-04-14T13:06:12.977Z,96994.63
2019-04-14T13:08:38.883Z,96995.53
2019-04-14T13:13:52.134Z,96995.22
2019-04-14T13:16:17.962Z,96999.97
2019-04-14T13:18:43.852Z,97004.47
2019-04-14T13:21:09.699Z,97002.48
2019-04-14T13:23:35.959Z,96999.41
2019-04-14T13:28:47.371Z,96993.94
2019-04-14T13:31:13.218Z,97001.45
2019-04-14T13:33:39.181Z,96995.33
2019-04-14T13:36:05.071Z,96996.35
2019-04-14T13:38:30.921Z,97001.00
2019-04-14T13:40:56.773Z,96992.20
2019-04-14T13:43:42.527Z,97000.92
2019-04-14T13:46:08.411Z,97000.92
2019-04-14T13:48:34.297Z,96999.22
2019-04-14T13:51:00.144Z,97003.91
2019-04-14T13:53:25.991Z,97005.53
2019-04-14T13:55:51.841Z,97012.00
2019-04-14T13:58:17.670Z,97009.16
2019-04-14T14:00:43.536Z,97014.63
2019-04-14T14:03:09.389Z,97011.81
2019-04-14T14:05:35.245Z,97009.85
2019-04-14T14:08:01.083Z,97013.94
2019-04-14T14:13:23.836Z,97013.91
2019-04-14T14:16:09.569Z,97016.81
2019-04-14T14:29:07.413Z,97013.91
2019-04-14T14:31:33.265Z,97008.16
2019-04-14T14:33:59.091Z,97007.77
2019-04-14T14:36:24.935Z,97004.13
2019-04-14T14:38:50.776Z,97009.97
2019-04-14T14:44:04.467Z,97012.06
2019-04-14T14:54:45.449Z,97009.58
2019-04-14T14:57:11.310Z,97023.50
2019-04-14T14:59:37.169Z,97022.65
2019-04-14T15:04:35.498Z,97029.73
2019-04-14T15:07:01.468Z,97034.46
2019-04-14T15:09:27.313Z,97037.63
2019-04-14T15:11:53.193Z,97031.21
2019-04-14T15:17:04.815Z,97038.09
2019-04-14T15:19:30.695Z,97052.05
2019-04-14T15:21:56.558Z,97047.73
2019-04-14T15:24:22.394Z,97049.71
2019-04-14T15:27:08.337Z,97050.69
2019-04-14T15:29:34.167Z,97052.03
2019-04-14T15:31:59.996Z,97057.50
2019-04-14T15:34:25.907Z,97053.98
2019-04-14T15:36:51.824Z,97051.86
2019-04-14T15:39:17.725Z,97044.69
2019-04-14T15:41:43.661Z,97053.70
2019-04-14T15:44:09.547Z,97058.91
2019-04-14T15:46:35.392Z,97059.24
2019-04-14T15:49:01.222Z,97056.41
2019-04-14T15:51:27.081Z,97060.86
2019-04-14T15:53:52.924Z,97066.63
2019-04-14T15:56:38.648Z,97069.20
2019-04-14T15:59:44.261Z,97068.23
2019-04-14T16:05:45.218Z,97073.31
2019-04-14T16:13:38.643Z,97074.42
2019-04-14T16:16:24.353Z,97078.69
2019-04-14T16:21:24.126Z,97089.23
2019-04-14T16:23:51.067Z,97087.14
2019-04-14T16:29:24.989Z,97081.05
2019-04-14T16:32:10.722Z,97091.62
2019-04-14T16:37:30.295Z,97091.17
2019-04-14T16:39:56.177Z,97090.25
2019-04-14T16:42:41.889Z,97094.77
2019-04-14T16:45:49.390Z,97091.38
2019-04-14T16:48:15.246Z,97086.84
2019-04-14T16:50:41.096Z,97093.67
2019-04-14T16:53:26.918Z,97095.79
2019-04-14T16:58:50.151Z,97091.27
2019-04-14T17:01:35.920Z,97101.80
2019-04-14T17:04:21.725Z,97099.83
2019-04-14T17:06:47.605Z,97106.90
2019-04-14T17:09:33.407Z,97105.84
2019-04-14T17:11:59.547Z,97100.62
2019-04-14T17:14:46.988Z,97111.05
2019-04-14T17:17:32.709Z,97111.59
2019-04-14T17:20:18.463Z,97110.83
2019-04-14T17:28:17.909Z,97123.19
2019-04-14T17:31:03.648Z,97127.41
2019-04-14T17:34:09.274Z,97127.17
2019-04-14T17:36:54.986Z,97127.17
2019-04-14T17:40:00.602Z,97131.06
2019-04-14T17:46:13.442Z,97143.97
2019-04-14T17:52:06.428Z,97143.87
2019-04-14T17:54:52.157Z,97143.87
2019-04-14T18:00:15.179Z,97159.63
2019-04-14T18:10:48.926Z,97177.41
2019-04-14T18:16:30.620Z,97180.55
2019-04-14T18:19:16.378Z,97193.34
2019-04-14T18:21:55.191Z,97191.56
2019-04-14T18:24:21.094Z,97191.56
2019-04-14T18:26:46.984Z,97190.05
2019-04-14T18:29:32.693Z,97201.84
2019-04-14T18:35:05.792Z,97214.10
2019-04-14T18:40:58.877Z,97210.48
2019-04-14T18:43:44.628Z,97215.93
2019-04-14T18:49:17.736Z,97227.21
2019-04-14T18:52:03.474Z,97226.68
2019-04-14T18:54:54.812Z,97224.32
2019-04-14T19:00:45.982Z,97235.05
2019-04-14T19:03:11.876Z,97233.77
2019-04-14T19:05:37.771Z,97236.86
2019-04-14T19:08:03.587Z,97246.33
2019-04-14T19:10:29.478Z,97248.16
2019-04-14T19:13:15.220Z,97244.23
2019-04-14T19:16:20.829Z,97252.09
2019-04-14T19:19:01.496Z,97252.88
2019-04-14T19:24:14.746Z,97255.73
2019-04-14T19:26:40.583Z,97260.97
2019-04-14T19:29:06.448Z,97263.59
2019-04-14T19:31:32.305Z,97265.16
2019-04-14T19:33:58.150Z,97257.56
2019-04-14T19:36:24.023Z,97265.41
2019-04-14T19:38:49.865Z,97268.83
2019-04-14T19:41:35.646Z,97265.94
2019-04-14T19:44:21.454Z,97257.39
2019-04-14T19:46:47.360Z,97257.39
2019-04-14T19:49:13.232Z,97272.55
2019-04-14T19:51:39.356Z,97285.16
2019-04-14T19:54:05.244Z,97281.76
2019-04-14T19:56:31.128Z,97279.67
2019-04-14T19:58:56.971Z,97281.72
2019-04-14T20:01:22.869Z,97286.73
2019-04-14T20:03:48.771Z,97288.58
2019-04-14T20:06:14.702Z,97290.13
2019-04-14T20:08:40.560Z,97288.31
2019-04-14T20:11:06.570Z,97289.31
2019-04-14T20:16:26.134Z,97291.22
2019-04-14T20:19:11.907Z,97291.73
2019-04-14T20:24:31.438Z,97296.45
2019-04-14T20:29:51.192Z,97303.25
2019-04-14T20:37:26.327Z,97305.31
2019-04-14T20:39:52.185Z,97307.69
2019-04-14T20:42:18.354Z,97307.96
2019-04-14T20:44:47.950Z,97311.89
2019-04-14T20:50:01.340Z,97305.09
2019-04-14T20:52:47.293Z,97307.44
2019-04-14T20:55:45.939Z,97303.78
2019-04-14T20:58:01.014Z,97310.08
2019-04-14T21:00:46.814Z,97305.09
2019-04-14T21:03:32.602Z,97310.31
2019-04-14T21:06:38.387Z,97312.95
2019-04-14T21:09:45.891Z,97323.70
2019-04-14T21:17:56.966Z,97313.52
2019-04-14T21:23:35.845Z,97323.97
2019-04-14T21:26:21.583Z,97320.30
2019-04-14T21:29:07.589Z,97320.82
2019-04-14T21:31:53.359Z,97323.97
2019-04-14T21:37:33.990Z,97324.24
2019-04-14T21:40:19.718Z,97328.42
2019-04-14T21:45:31.142Z,97335.23
2019-04-14T21:47:57.357Z,97333.12
2019-04-14T21:50:23.201Z,97327.63
2019-04-14T21:52:50.034Z,97333.92
2019-04-14T21:55:16.945Z,97335.48
2019-04-14T21:58:02.668Z,97340.98
2019-04-14T22:01:10.158Z,97337.58
2019-04-14T22:03:55.875Z,97332.60
2019-04-14T22:08:58.902Z,97331.05
2019-04-14T22:16:47.684Z,97331.56
2019-04-14T22:19:13.553Z,97332.34
2019-04-14T22:21:39.399Z,97333.94
2019-04-14T22:24:05.231Z,97335.23
2019-04-14T22:26:31.173Z,97332.34
2019-04-14T22:28:57.116Z,97333.16
2019-04-14T22:31:23.096Z,97336.02
2019-04-14T22:33:48.952Z,97335.77
2019-04-14T22:36:14.799Z,97337.34
2019-04-14T22:38:40.694Z,97342.83
2019-04-14T22:41:06.526Z,97349.66
2019-04-14T22:43:32.392Z,97349.39
2019-04-14T22:46:39.896Z,97350.97
2019-04-14T22:49:05.734Z,97363.52
2019-04-14T22:51:31.580Z,97357.75
2019-04-14T22:53:57.440Z,97356.19
2019-04-14T22:56:23.281Z,97352.78
2019-04-14T22:58:49.147Z,97352.02
2019-04-14T23:01:34.849Z,97358.30
2019-04-14T23:06:54.492Z,97360.89
2019-04-14T23:09:40.213Z,97360.38
2019-04-14T23:18:06.793Z,97352.78
2019-04-14T23:25:43.936Z,97356.72
2019-04-14T23:28:09.768Z,97360.90
2019-04-14T23:30:55.601Z,97343.35
2019-04-14T23:33:21.454Z,97354.34
2019-04-14T23:35:47.323Z,97357.50
2019-04-14T23:38:13.148Z,97357.75
2019-04-14T23:40:39.069Z,97352.27
2019-04-14T23:43:04.856Z,97357.24
2019-04-14T23:45:30.710Z,97358.02
2019-04-14T23:47:56.554Z,97352.27
2019-04-14T23:50:22.426Z,97356.47
2019-04-14T23:52:48.264Z,97361.42
2019-04-14T23:55:14.175Z,97357.23
2019-04-14T23:57:39.956Z,97360.38
